createdAt,value
2022-12-24T00:00:38.518Z,9.20
2022-12-24T00:03:05.357Z,9.10
2022-12-24T00:05:32.063Z,9.20
2022-12-24T00:07:58.703Z,9.20
2022-12-24T00:10:25.273Z,9.20
2022-12-24T00:12:51.867Z,9.20
2022-12-24T00:15:18.484Z,9.20
2022-12-24T00:17:45.103Z,9.20
2022-12-24T00:20:11.776Z,9.30
2022-12-24T00:22:38.390Z,9.30
2022-12-24T00:25:05.350Z,9.20
2022-12-24T00:27:32.019Z,9.20
2022-12-24T00:29:58.592Z,9.30
2022-12-24T00:32:25.184Z,9.30
2022-12-24T00:34:51.766Z,9.30
2022-12-24T00:37:18.393Z,9.30
2022-12-24T00:39:45.005Z,9.40
2022-12-24T00:42:11.608Z,9.30
2022-12-24T00:44:38.234Z,9.30
2022-12-24T00:47:11.649Z,9.30
2022-12-24T00:49:38.656Z,9.40
2022-12-24T00:52:05.249Z,9.30
2022-12-24T00:54:31.874Z,9.40
2022-12-24T00:56:58.474Z,9.30
2022-12-24T00:59:25.124Z,9.50
2022-12-24T01:01:51.844Z,9.40
2022-12-24T01:04:37.359Z,9.40
2022-12-24T01:07:03.954Z,9.30
2022-12-24T01:09:30.551Z,9.40
2022-12-24T01:11:57.166Z,9.50
2022-12-24T01:14:23.809Z,9.40
2022-12-24T01:16:50.411Z,9.40
2022-12-24T01:19:16.996Z,9.50
2022-12-24T01:21:43.611Z,9.50
2022-12-24T01:24:14.085Z,9.50
2022-12-24T01:26:40.861Z,9.50
2022-12-24T01:29:07.535Z,9.40
2022-12-24T01:31:34.644Z,9.20
2022-12-24T01:34:01.328Z,9.10
2022-12-24T01:36:27.988Z,9.00
2022-12-24T01:38:54.608Z,9.10
2022-12-24T01:41:41.683Z,9.10
2022-12-24T01:44:35.347Z,9.00
2022-12-24T01:47:14.190Z,8.80
2022-12-24T01:49:43.027Z,8.90
2022-12-24T01:52:12.959Z,8.90
2022-12-24T01:54:43.491Z,8.90
2022-12-24T01:57:13.326Z,8.80
2022-12-24T01:59:42.089Z,8.90
2022-12-24T02:02:09.363Z,8.80
2022-12-24T02:05:02.149Z,9.10
2022-12-24T02:07:28.778Z,9.20
2022-12-24T02:09:57.575Z,9.20
2022-12-24T02:12:25.162Z,9.20
2022-12-24T02:14:52.540Z,9.20
2022-12-24T02:17:26.125Z,9.20
2022-12-24T02:20:11.586Z,9.20
2022-12-24T02:22:43.335Z,9.00
2022-12-24T02:25:25.201Z,9.20
2022-12-24T02:28:03.966Z,9.20
2022-12-24T02:30:33.137Z,9.30
2022-12-24T02:33:22.816Z,9.20
2022-12-24T02:35:53.053Z,9.20
2022-12-24T02:38:27.430Z,9.30
2022-12-24T02:40:57.661Z,9.30
2022-12-24T02:43:27.490Z,9.20
2022-12-24T02:45:59.258Z,9.10
2022-12-24T02:48:27.621Z,9.20
2022-12-24T02:50:58.267Z,9.10
2022-12-24T02:53:24.903Z,9.30
2022-12-24T02:56:15.817Z,9.30
2022-12-24T02:58:54.543Z,9.30
2022-12-24T03:01:41.592Z,9.30
2022-12-24T03:04:39.283Z,9.30
2022-12-24T03:07:08.033Z,9.30
2022-12-24T03:09:42.376Z,9.40
2022-12-24T03:12:22.267Z,9.50
2022-12-24T03:14:49.883Z,9.50
2022-12-24T03:17:18.014Z,9.30
2022-12-24T03:19:44.817Z,9.50
2022-12-24T03:22:11.794Z,9.40
2022-12-24T03:24:38.475Z,9.30
2022-12-24T03:27:06.520Z,9.30
2022-12-24T03:29:33.168Z,9.30
2022-12-24T03:32:00.821Z,9.30
2022-12-24T03:34:27.510Z,9.40
2022-12-24T03:36:54.163Z,9.40
2022-12-24T03:39:20.780Z,9.30
2022-12-24T03:41:47.500Z,9.30
2022-12-24T03:44:14.319Z,9.30
2022-12-24T03:46:40.950Z,9.30
2022-12-24T03:49:07.534Z,9.30
2022-12-24T03:51:34.224Z,9.30
2022-12-24T03:54:02.019Z,9.40
2022-12-24T03:56:28.722Z,9.30
2022-12-24T03:58:55.346Z,9.30
2022-12-24T04:01:22.202Z,9.40
2022-12-24T04:03:48.920Z,9.20
2022-12-24T04:06:17.684Z,9.30
2022-12-24T04:08:44.443Z,9.40
2022-12-24T04:11:12.579Z,9.40
2022-12-24T04:13:39.325Z,9.40
2022-12-24T04:16:07.932Z,9.40
2022-12-24T04:18:34.891Z,9.50
2022-12-24T04:21:01.517Z,9.50
2022-12-24T04:23:30.346Z,9.50
2022-12-24T04:25:58.841Z,9.50
2022-12-24T04:28:25.485Z,9.50
2022-12-24T04:30:52.115Z,9.50
2022-12-24T04:33:18.767Z,9.40
2022-12-24T04:35:45.368Z,9.30
2022-12-24T04:38:11.948Z,9.20
2022-12-24T04:40:38.596Z,9.20
2022-12-24T04:43:05.206Z,9.30
2022-12-24T04:45:32.440Z,9.30
2022-12-24T04:47:59.130Z,9.40
2022-12-24T04:50:25.745Z,9.30
2022-12-24T04:52:52.370Z,9.40
2022-12-24T04:55:18.986Z,9.40
2022-12-24T04:57:51.186Z,9.40
2022-12-24T05:00:19.600Z,9.30
2022-12-24T05:02:46.299Z,9.20
2022-12-24T05:05:12.930Z,9.30
2022-12-24T05:07:39.541Z,9.30
2022-12-24T05:10:06.644Z,9.20
2022-12-24T05:12:33.289Z,9.10
2022-12-24T05:14:59.905Z,9.10
2022-12-24T05:17:26.526Z,9.20
2022-12-24T05:19:53.132Z,9.20
2022-12-24T05:22:38.505Z,9.10
2022-12-24T05:25:23.683Z,9.20
2022-12-24T05:27:51.451Z,9.20
2022-12-24T05:30:18.349Z,9.10
2022-12-24T05:32:45.058Z,9.20
2022-12-24T05:35:11.753Z,9.20
2022-12-24T05:37:38.353Z,9.20
2022-12-24T05:40:05.235Z,9.20
2022-12-24T05:42:31.845Z,9.10
2022-12-24T05:44:58.433Z,9.20
2022-12-24T05:47:25.150Z,9.10
2022-12-24T05:49:51.739Z,9.10
2022-12-24T05:52:18.340Z,9.10
2022-12-24T05:54:44.933Z,9.10
2022-12-24T05:57:11.556Z,9.10
2022-12-24T05:59:38.166Z,9.10
2022-12-24T06:02:04.832Z,9.20
2022-12-24T06:04:31.564Z,9.20
2022-12-24T06:06:58.405Z,9.20
2022-12-24T06:09:25.038Z,9.30
2022-12-24T06:11:51.633Z,9.30
2022-12-24T06:14:18.244Z,9.20
2022-12-24T06:16:44.861Z,9.20
2022-12-24T06:19:11.496Z,9.20
2022-12-24T06:21:38.091Z,9.20
2022-12-24T06:24:04.853Z,9.20
2022-12-24T06:26:31.450Z,9.20
2022-12-24T06:28:58.033Z,9.20
2022-12-24T06:31:24.762Z,9.20
2022-12-24T06:33:51.943Z,9.10
2022-12-24T06:36:23.288Z,9.10
2022-12-24T06:38:50.553Z,9.10
2022-12-24T06:41:18.107Z,9.10
2022-12-24T06:43:45.947Z,9.10
2022-12-24T06:46:13.192Z,9.10
2022-12-24T06:48:39.999Z,9.10
2022-12-24T06:51:06.599Z,9.00
2022-12-24T06:53:33.450Z,9.00
2022-12-24T06:56:07.381Z,9.00
2022-12-24T06:58:34.532Z,8.90
2022-12-24T07:01:02.121Z,8.90
2022-12-24T07:03:29.466Z,9.00
2022-12-24T07:05:56.148Z,8.90
2022-12-24T07:08:22.776Z,8.90
2022-12-24T07:10:54.047Z,8.80
2022-12-24T07:13:21.475Z,8.80
2022-12-24T07:15:56.499Z,8.80
2022-12-24T07:18:23.149Z,8.80
2022-12-24T07:20:49.720Z,8.80
2022-12-24T07:23:16.331Z,8.80
2022-12-24T07:25:43.087Z,8.70
2022-12-24T07:28:09.716Z,8.70
2022-12-24T07:30:36.561Z,8.70
2022-12-24T07:33:03.290Z,8.70
2022-12-24T07:35:29.885Z,8.70
2022-12-24T07:37:56.503Z,8.70
2022-12-24T07:40:23.247Z,8.70
2022-12-24T07:42:51.552Z,8.70
2022-12-24T07:45:18.234Z,8.60
2022-12-24T07:47:44.846Z,8.70
2022-12-24T07:50:11.621Z,8.70
2022-12-24T07:52:38.200Z,8.70
2022-12-24T07:55:05.194Z,8.70
2022-12-24T07:57:31.970Z,8.70
2022-12-24T07:59:58.563Z,8.70
2022-12-24T08:02:25.386Z,8.80
2022-12-24T08:04:52.107Z,8.70
2022-12-24T08:07:18.698Z,8.80
2022-12-24T08:09:46.170Z,8.80
2022-12-24T08:12:12.823Z,8.70
2022-12-24T08:14:39.445Z,8.70
2022-12-24T08:17:06.030Z,8.70
2022-12-24T08:19:32.631Z,8.70
2022-12-24T08:21:59.243Z,8.80
2022-12-24T08:24:25.874Z,8.90
2022-12-24T08:26:52.609Z,8.80
2022-12-24T08:29:19.239Z,8.80
2022-12-24T08:31:45.872Z,8.80
2022-12-24T08:34:12.612Z,8.80
2022-12-24T08:36:39.240Z,8.80
2022-12-24T08:39:08.733Z,8.80
2022-12-24T08:41:35.419Z,8.80
2022-12-24T08:44:02.102Z,8.80
2022-12-24T08:46:28.716Z,8.80
2022-12-24T08:48:55.385Z,8.90
2022-12-24T08:51:22.086Z,8.90
2022-12-24T08:53:48.865Z,8.90
2022-12-24T08:56:15.515Z,8.90
2022-12-24T08:58:42.183Z,8.90
2022-12-24T09:01:13.596Z,8.90
2022-12-24T09:03:40.494Z,8.90
2022-12-24T09:06:09.839Z,8.90
2022-12-24T09:08:36.847Z,9.00
2022-12-24T09:11:07.317Z,9.00
2022-12-24T09:13:34.102Z,9.00
2022-12-24T09:16:00.830Z,9.00
2022-12-24T09:18:27.688Z,9.10
2022-12-24T09:21:04.975Z,9.10
2022-12-24T09:23:31.684Z,9.20
2022-12-24T09:25:58.382Z,9.30
2022-12-24T09:28:25.037Z,9.30
2022-12-24T09:31:02.087Z,9.40
2022-12-24T09:33:29.611Z,9.40
2022-12-24T09:35:56.237Z,9.40
2022-12-24T09:38:22.866Z,9.40
2022-12-24T09:40:50.373Z,9.40
2022-12-24T09:43:18.440Z,9.50
2022-12-24T09:45:51.228Z,9.50
2022-12-24T09:48:19.977Z,9.40
2022-12-24T09:50:59.431Z,9.30
2022-12-24T09:53:29.655Z,9.20
2022-12-24T09:55:57.910Z,9.30
2022-12-24T09:58:35.690Z,9.30
2022-12-24T10:01:02.426Z,9.30
2022-12-24T10:03:29.266Z,9.40
2022-12-24T10:06:01.039Z,9.50
2022-12-24T10:08:39.721Z,9.30
2022-12-24T10:11:06.404Z,9.50
2022-12-24T10:13:42.810Z,9.40
2022-12-24T10:16:12.618Z,9.40
2022-12-24T10:18:51.784Z,9.70
2022-12-24T10:21:24.425Z,9.90
2022-12-24T10:23:54.032Z,10.00
2022-12-24T10:26:24.977Z,10.00
2022-12-24T10:28:53.561Z,10.10
2022-12-24T10:31:23.533Z,10.20
2022-12-24T10:33:54.297Z,10.30
2022-12-24T10:36:23.768Z,10.10
2022-12-24T10:38:50.579Z,10.20
2022-12-24T10:41:17.253Z,10.20
2022-12-24T10:43:44.955Z,10.20
2022-12-24T10:46:17.786Z,9.90
2022-12-24T10:48:50.763Z,9.80
2022-12-24T10:51:26.957Z,9.60
2022-12-24T10:54:00.625Z,9.70
2022-12-24T10:56:27.278Z,9.70
2022-12-24T10:58:54.667Z,9.50
2022-12-24T11:01:41.310Z,9.30
2022-12-24T11:04:14.806Z,9.50
2022-12-24T11:06:55.120Z,9.70
2022-12-24T11:09:43.214Z,9.90
2022-12-24T11:12:18.608Z,10.20
2022-12-24T11:14:45.495Z,10.30
2022-12-24T11:17:22.629Z,10.30
2022-12-24T11:19:50.117Z,10.40
2022-12-24T11:22:18.456Z,10.40
2022-12-24T11:24:50.054Z,10.50
2022-12-24T11:27:30.895Z,10.60
2022-12-24T11:30:16.317Z,10.60
2022-12-24T11:32:44.830Z,10.60
2022-12-24T11:35:22.525Z,10.30
2022-12-24T11:37:58.291Z,10.20
2022-12-24T11:40:26.559Z,10.20
2022-12-24T11:42:59.150Z,10.30
2022-12-24T11:45:27.189Z,10.30
2022-12-24T11:47:54.179Z,10.10
2022-12-24T11:50:22.997Z,10.00
2022-12-24T11:53:08.181Z,9.90
2022-12-24T11:55:45.914Z,9.90
2022-12-24T11:58:12.492Z,10.10
2022-12-24T12:00:39.931Z,10.10
2022-12-24T12:03:09.787Z,10.10
2022-12-24T12:05:38.854Z,10.10
2022-12-24T12:08:14.820Z,10.00
2022-12-24T12:10:42.824Z,9.90
2022-12-24T12:13:15.774Z,9.80
2022-12-24T12:16:03.165Z,9.80
2022-12-24T12:18:34.418Z,9.80
2022-12-24T12:21:03.953Z,9.70
2022-12-24T12:23:32.876Z,9.70
2022-12-24T12:26:01.881Z,9.60
2022-12-24T12:28:31.867Z,9.70
2022-12-24T12:31:02.385Z,9.70
2022-12-24T12:33:49.803Z,9.60
2022-12-24T12:36:18.812Z,9.70
2022-12-24T12:38:45.442Z,9.60
2022-12-24T12:41:21.897Z,9.60
2022-12-24T12:43:54.725Z,9.50
2022-12-24T12:46:25.875Z,9.50
2022-12-24T12:49:10.702Z,9.40
2022-12-24T12:51:47.980Z,9.40
2022-12-24T12:54:14.949Z,9.50
2022-12-24T12:56:44.861Z,9.50
2022-12-24T12:59:15.213Z,9.50
2022-12-24T13:01:46.075Z,9.40
2022-12-24T13:04:31.681Z,9.40
2022-12-24T13:07:13.522Z,9.50
2022-12-24T13:09:40.109Z,9.50
2022-12-24T13:12:06.735Z,9.60
2022-12-24T13:14:33.411Z,9.60
2022-12-24T13:17:18.761Z,9.50
2022-12-24T13:19:45.340Z,9.50
2022-12-24T13:22:17.245Z,9.50
2022-12-24T13:24:52.532Z,9.40
2022-12-24T13:27:19.320Z,9.50
2022-12-24T13:29:45.946Z,9.50
2022-12-24T13:32:21.899Z,9.50
2022-12-24T13:34:53.099Z,9.40
2022-12-24T13:37:19.676Z,9.50
2022-12-24T13:40:04.744Z,9.30
2022-12-24T13:42:50.146Z,9.30
2022-12-24T13:45:29.373Z,9.20
2022-12-24T13:47:56.627Z,9.10
2022-12-24T13:50:36.180Z,9.10
2022-12-24T13:53:03.008Z,9.10
2022-12-24T13:55:30.146Z,9.10
2022-12-24T13:58:03.893Z,9.10
2022-12-24T14:00:44.817Z,9.10
2022-12-24T14:03:14.609Z,9.20
2022-12-24T14:05:44.724Z,9.30
2022-12-24T14:08:12.864Z,9.20
2022-12-24T14:10:45.629Z,9.30
2022-12-24T14:13:31.150Z,9.30
2022-12-24T14:15:57.777Z,9.10
2022-12-24T14:18:24.820Z,9.00
2022-12-24T14:20:52.921Z,9.00
2022-12-24T14:23:28.805Z,9.00
2022-12-24T14:25:56.922Z,8.90
2022-12-24T14:28:25.570Z,8.90
2022-12-24T14:31:02.263Z,8.90
2022-12-24T14:33:33.669Z,8.80
2022-12-24T14:36:00.972Z,8.80
2022-12-24T14:38:28.053Z,8.70
2022-12-24T14:40:58.923Z,8.70
2022-12-24T14:43:34.436Z,8.70
2022-12-24T14:46:13.538Z,8.60
2022-12-24T14:48:49.262Z,8.60
2022-12-24T14:51:24.973Z,8.50
2022-12-24T14:54:02.836Z,8.40
2022-12-24T14:56:29.618Z,8.40
2022-12-24T14:58:58.253Z,8.40
2022-12-24T15:01:27.004Z,8.30
2022-12-24T15:04:04.179Z,8.30
2022-12-24T15:06:33.287Z,8.20
2022-12-24T15:09:00.114Z,8.20
2022-12-24T15:11:26.860Z,8.30
2022-12-24T15:13:57.312Z,8.20
2022-12-24T15:16:25.630Z,8.10
2022-12-24T15:18:55.037Z,8.20
2022-12-24T15:21:25.748Z,8.10
2022-12-24T15:23:52.370Z,8.10
2022-12-24T15:26:25.165Z,8.10
2022-12-24T15:28:58.183Z,8.10
2022-12-24T15:31:28.590Z,8.00
2022-12-24T15:33:56.143Z,8.10
2022-12-24T15:36:35.912Z,8.10
2022-12-24T15:39:07.126Z,8.10
2022-12-24T15:41:38.724Z,8.00
2022-12-24T15:44:05.484Z,8.00
2022-12-24T15:46:32.395Z,8.00
2022-12-24T15:49:00.294Z,8.00
2022-12-24T15:51:28.785Z,8.00
2022-12-24T15:53:59.684Z,8.00
2022-12-24T15:56:34.118Z,8.00
2022-12-24T15:59:12.676Z,7.90
2022-12-24T16:01:39.627Z,7.90
2022-12-24T16:04:16.797Z,7.90
2022-12-24T16:07:06.662Z,7.90
2022-12-24T16:09:36.010Z,7.90
2022-12-24T16:12:03.894Z,7.90
2022-12-24T16:14:31.527Z,7.90
2022-12-24T16:16:58.618Z,7.90
2022-12-24T16:19:27.784Z,7.90
2022-12-24T16:22:21.704Z,7.90
2022-12-24T16:24:48.297Z,7.90
2022-12-24T16:27:14.929Z,7.90
2022-12-24T16:29:41.500Z,7.90
2022-12-24T16:32:21.116Z,7.80
2022-12-24T16:34:48.775Z,7.90
2022-12-24T16:37:15.360Z,7.90
2022-12-24T16:39:43.559Z,7.90
2022-12-24T16:42:28.911Z,7.80
2022-12-24T16:44:55.722Z,7.80
2022-12-24T16:47:22.440Z,7.80
2022-12-24T16:49:49.033Z,7.80
2022-12-24T16:52:22.839Z,7.80
2022-12-24T16:54:49.958Z,7.80
2022-12-24T16:57:16.887Z,7.80
2022-12-24T16:59:43.554Z,7.80
2022-12-24T17:02:14.948Z,7.80
2022-12-24T17:04:42.198Z,7.80
2022-12-24T17:07:10.140Z,7.80
2022-12-24T17:09:36.730Z,7.80
2022-12-24T17:12:03.627Z,7.80
2022-12-24T17:14:30.280Z,7.70
2022-12-24T17:16:56.977Z,7.80
2022-12-24T17:19:23.598Z,7.70
2022-12-24T17:21:50.221Z,7.70
2022-12-24T17:24:16.810Z,7.70
2022-12-24T17:26:43.627Z,7.70
2022-12-24T17:29:10.303Z,7.70
2022-12-24T17:31:40.822Z,7.70
2022-12-24T17:34:07.551Z,7.70
2022-12-24T17:36:34.494Z,7.70
2022-12-24T17:39:01.085Z,7.60
2022-12-24T17:41:27.676Z,7.60
2022-12-24T17:43:54.273Z,7.60
2022-12-24T17:46:23.281Z,7.60
2022-12-24T17:48:50.624Z,7.70
2022-12-24T17:51:18.607Z,7.70
2022-12-24T17:53:45.373Z,7.70
2022-12-24T17:56:12.505Z,7.60
2022-12-24T17:58:39.639Z,7.60
2022-12-24T18:01:06.805Z,7.50
2022-12-24T18:03:33.897Z,7.60
2022-12-24T18:06:05.236Z,7.60
2022-12-24T18:08:32.237Z,7.50
2022-12-24T18:10:58.896Z,7.50
2022-12-24T18:13:25.601Z,7.50
2022-12-24T18:15:52.246Z,7.60
2022-12-24T18:18:18.863Z,7.60
2022-12-24T18:20:47.059Z,7.60
2022-12-24T18:23:13.951Z,7.60
2022-12-24T18:25:40.644Z,7.50
2022-12-24T18:28:07.332Z,7.50
2022-12-24T18:30:33.956Z,7.40
2022-12-24T18:33:01.138Z,7.50
2022-12-24T18:35:28.221Z,7.50
2022-12-24T18:37:54.867Z,7.50
2022-12-24T18:40:21.483Z,7.50
2022-12-24T18:42:48.075Z,7.50
2022-12-24T18:45:14.767Z,7.60
2022-12-24T18:47:41.444Z,7.50
2022-12-24T18:50:08.193Z,7.50
2022-12-24T18:52:35.420Z,7.50
2022-12-24T18:55:02.071Z,7.50
2022-12-24T18:57:30.635Z,7.50
2022-12-24T18:59:57.272Z,7.50
2022-12-24T19:02:24.019Z,7.50
2022-12-24T19:04:50.824Z,7.50
2022-12-24T19:07:17.448Z,7.50
2022-12-24T19:09:48.271Z,7.60
2022-12-24T19:12:15.680Z,7.60
2022-12-24T19:14:43.637Z,7.60
2022-12-24T19:17:10.343Z,7.60
2022-12-24T19:19:36.947Z,7.60
2022-12-24T19:22:03.612Z,7.60
2022-12-24T19:24:30.350Z,7.60
2022-12-24T19:26:56.945Z,7.60
2022-12-24T19:29:23.555Z,7.50
2022-12-24T19:31:50.173Z,7.60
2022-12-24T19:34:16.817Z,7.50
2022-12-24T19:36:43.503Z,7.50
2022-12-24T19:39:10.173Z,7.60
2022-12-24T19:41:36.812Z,7.50
2022-12-24T19:44:03.542Z,7.60
2022-12-24T19:46:31.316Z,7.60
2022-12-24T19:48:58.982Z,7.60
2022-12-24T19:51:26.512Z,7.60
2022-12-24T19:53:57.170Z,7.60
2022-12-24T19:56:24.485Z,7.60
2022-12-24T19:58:51.597Z,7.50
2022-12-24T20:01:20.045Z,7.60
2022-12-24T20:03:47.208Z,7.60
2022-12-24T20:06:15.003Z,7.50
2022-12-24T20:08:41.633Z,7.50
2022-12-24T20:11:09.245Z,7.50
2022-12-24T20:13:36.459Z,7.50
2022-12-24T20:16:07.105Z,7.50
2022-12-24T20:18:34.174Z,7.60
2022-12-24T20:21:01.466Z,7.50
2022-12-24T20:23:28.062Z,7.60
2022-12-24T20:25:58.947Z,7.50
2022-12-24T20:28:26.194Z,7.50
2022-12-24T20:30:52.812Z,7.60
2022-12-24T20:33:20.710Z,7.50
2022-12-24T20:35:47.454Z,7.40
2022-12-24T20:38:14.461Z,7.50
2022-12-24T20:40:42.020Z,7.50
2022-12-24T20:43:08.603Z,7.50
2022-12-24T20:45:35.400Z,7.60
2022-12-24T20:48:02.336Z,7.50
2022-12-24T20:50:28.994Z,7.60
2022-12-24T20:52:55.611Z,7.40
2022-12-24T20:55:22.266Z,7.40
2022-12-24T20:57:50.387Z,7.50
2022-12-24T21:00:17.222Z,7.40
2022-12-24T21:02:44.030Z,7.30
2022-12-24T21:05:10.789Z,7.30
2022-12-24T21:07:42.847Z,7.30
2022-12-24T21:10:10.433Z,7.30
2022-12-24T21:12:49.764Z,7.20
2022-12-24T21:15:17.331Z,7.20
2022-12-24T21:17:43.945Z,7.10
2022-12-24T21:20:10.870Z,7.10
2022-12-24T21:22:37.656Z,7.10
2022-12-24T21:25:04.470Z,7.20
2022-12-24T21:27:31.991Z,7.10
2022-12-24T21:29:58.776Z,7.20
2022-12-24T21:32:25.546Z,7.20
2022-12-24T21:34:52.238Z,7.20
2022-12-24T21:37:19.142Z,7.30
2022-12-24T21:39:45.778Z,7.20
2022-12-24T21:42:12.377Z,7.00
2022-12-24T21:44:39.012Z,7.00
2022-12-24T21:47:05.705Z,7.00
2022-12-24T21:49:51.237Z,7.10
2022-12-24T21:52:17.989Z,7.20
2022-12-24T21:54:44.602Z,7.20
2022-12-24T21:57:29.917Z,7.10
2022-12-24T21:59:57.434Z,7.10
2022-12-24T22:02:27.942Z,6.90
2022-12-24T22:04:54.784Z,7.00
2022-12-24T22:07:45.140Z,7.00
2022-12-24T22:10:31.031Z,6.90
2022-12-24T22:13:00.749Z,6.70
2022-12-24T22:15:27.380Z,6.80
2022-12-24T22:17:53.971Z,6.80
2022-12-24T22:20:20.605Z,6.80
2022-12-24T22:22:47.988Z,6.80
2022-12-24T22:25:14.748Z,6.80
2022-12-24T22:27:41.337Z,6.70
2022-12-24T22:30:08.290Z,6.70
2022-12-24T22:32:34.910Z,6.60
2022-12-24T22:35:01.527Z,6.70
2022-12-24T22:37:28.129Z,6.90
2022-12-24T22:39:54.704Z,6.90
2022-12-24T22:42:21.418Z,6.90
2022-12-24T22:44:48.736Z,6.90
2022-12-24T22:47:15.337Z,7.00
2022-12-24T22:49:41.973Z,7.10
2022-12-24T22:52:09.060Z,7.00
2022-12-24T22:54:36.020Z,7.10
2022-12-24T22:57:02.658Z,7.10
2022-12-24T22:59:29.251Z,7.10
2022-12-24T23:01:56.378Z,7.10
2022-12-24T23:04:23.175Z,7.10
2022-12-24T23:06:49.833Z,7.20
2022-12-24T23:09:17.433Z,7.10
2022-12-24T23:11:44.541Z,7.10
2022-12-24T23:14:34.178Z,7.10
2022-12-24T23:17:00.887Z,7.10
2022-12-24T23:19:27.500Z,6.90
2022-12-24T23:21:54.110Z,7.00
2022-12-24T23:24:20.704Z,7.00
2022-12-24T23:26:47.359Z,7.10
2022-12-24T23:29:13.954Z,7.20
2022-12-24T23:31:40.606Z,7.20
2022-12-24T23:34:07.224Z,7.10
2022-12-24T23:36:33.836Z,7.10
2022-12-24T23:39:00.576Z,7.10
2022-12-24T23:41:27.298Z,7.10
2022-12-24T23:43:53.905Z,7.20
2022-12-24T23:46:21.043Z,7.10
2022-12-24T23:48:52.482Z,6.80
2022-12-24T23:51:19.866Z,6.70
2022-12-24T23:53:46.477Z,6.60
2022-12-24T23:56:13.283Z,6.60
2022-12-24T23:58:40.510Z,6.50
